createdAt,value
2022-10-05T00:02:20.846Z,16.80
2022-10-05T00:04:49.063Z,16.79
2022-10-05T00:07:16.959Z,16.75
2022-10-05T00:09:51.793Z,16.73
2022-10-05T00:12:19.928Z,16.69
2022-10-05T00:14:49.512Z,16.68
2022-10-05T00:17:26.309Z,16.64
2022-10-05T00:19:54.116Z,16.64
2022-10-05T00:22:22.659Z,16.64
2022-10-05T00:24:51.592Z,16.30
2022-10-05T00:27:37.607Z,16.67
2022-10-05T00:30:18.017Z,16.68
2022-10-05T00:32:45.021Z,16.64
2022-10-05T00:35:12.643Z,16.63
2022-10-05T00:37:39.703Z,16.59
2022-10-05T00:40:15.551Z,16.57
2022-10-05T00:42:45.474Z,16.55
2022-10-05T00:45:14.179Z,16.31
2022-10-05T00:48:05.843Z,16.47
2022-10-05T00:50:54.615Z,16.43
2022-10-05T00:53:40.068Z,16.38
2022-10-05T00:56:14.223Z,16.35
2022-10-05T00:59:08.720Z,16.19
2022-10-05T01:02:06.316Z,16.31
2022-10-05T01:04:46.954Z,16.28
2022-10-05T01:07:16.668Z,16.23
2022-10-05T01:10:09.301Z,16.23
2022-10-05T01:13:00.765Z,16.17
2022-10-05T01:15:37.096Z,16.12
2022-10-05T01:18:28.047Z,15.96
2022-10-05T01:21:30.426Z,16.03
2022-10-05T01:24:07.465Z,15.99
2022-10-05T01:26:56.214Z,15.95
2022-10-05T01:29:58.330Z,15.92
2022-10-05T01:32:57.314Z,15.86
2022-10-05T01:35:36.193Z,15.85
2022-10-05T01:38:29.879Z,15.84
2022-10-05T01:41:15.838Z,15.80
2022-10-05T01:43:55.259Z,15.61
2022-10-05T01:46:24.540Z,15.71
2022-10-05T01:49:28.727Z,15.66
2022-10-05T01:52:33.181Z,15.62
2022-10-05T01:55:09.009Z,15.60
2022-10-05T01:57:51.303Z,15.55
2022-10-05T02:00:18.437Z,15.51
2022-10-05T02:02:45.466Z,15.47
2022-10-05T02:05:21.664Z,15.50
2022-10-05T02:07:54.972Z,15.59
2022-10-05T02:10:54.093Z,15.75
2022-10-05T02:13:45.780Z,15.87
2022-10-05T02:16:17.239Z,15.99
2022-10-05T02:18:54.844Z,15.91
2022-10-05T02:21:21.771Z,16.13
2022-10-05T02:23:49.592Z,16.19
2022-10-05T02:26:16.579Z,16.31
2022-10-05T02:28:43.972Z,16.36
2022-10-05T02:31:15.124Z,16.42
2022-10-05T02:33:42.104Z,16.50
2022-10-05T02:36:25.262Z,16.61
2022-10-05T02:39:23.664Z,16.58
2022-10-05T02:41:52.989Z,16.80
2022-10-05T02:44:28.435Z,16.81
2022-10-05T02:46:58.602Z,16.93
2022-10-05T02:49:41.475Z,17.06
2022-10-05T02:52:18.852Z,17.17
2022-10-05T02:55:02.372Z,17.17
2022-10-05T02:58:05.631Z,17.18
2022-10-05T03:00:35.081Z,17.25
2022-10-05T03:03:12.090Z,17.22
2022-10-05T03:05:46.543Z,17.44
2022-10-05T03:08:19.900Z,17.38
2022-10-05T03:10:59.114Z,17.45
2022-10-05T03:13:31.508Z,17.55
2022-10-05T03:16:01.677Z,17.63
2022-10-05T03:18:47.034Z,17.70
2022-10-05T03:21:35.831Z,17.72
2022-10-05T03:24:08.398Z,17.75
2022-10-05T03:26:42.000Z,17.86
2022-10-05T03:29:14.955Z,17.92
2022-10-05T03:31:56.723Z,17.78
2022-10-05T03:34:35.604Z,17.97
2022-10-05T03:37:15.652Z,17.83
2022-10-05T03:40:32.132Z,18.08
2022-10-05T03:43:17.702Z,18.10
2022-10-05T03:45:56.976Z,18.08
2022-10-05T03:48:33.610Z,18.12
2022-10-05T03:51:15.791Z,18.23
2022-10-05T03:53:49.620Z,18.27
2022-10-05T03:56:21.872Z,18.24
2022-10-05T03:59:18.666Z,18.27
2022-10-05T04:01:48.501Z,18.33
2022-10-05T04:04:33.836Z,18.37
2022-10-05T04:07:00.980Z,18.41
2022-10-05T04:09:34.758Z,18.40
2022-10-05T04:12:17.257Z,18.47
2022-10-05T04:14:47.201Z,18.54
2022-10-05T04:17:22.768Z,18.60
2022-10-05T04:20:02.389Z,18.63
2022-10-05T04:22:38.831Z,18.60
2022-10-05T04:25:27.725Z,18.49
2022-10-05T04:28:11.503Z,18.65
2022-10-05T04:30:39.224Z,18.61
2022-10-05T04:33:09.433Z,18.67
2022-10-05T04:35:45.346Z,18.54
2022-10-05T04:38:34.062Z,18.52
2022-10-05T04:41:38.359Z,18.63
2022-10-05T04:44:20.574Z,18.66
2022-10-05T04:47:05.791Z,18.71
2022-10-05T04:49:42.865Z,18.77
2022-10-05T04:52:33.062Z,18.88
2022-10-05T04:55:22.662Z,18.99
2022-10-05T04:57:51.402Z,18.95
2022-10-05T05:00:23.600Z,19.01
2022-10-05T05:03:15.873Z,18.94
2022-10-05T05:06:16.837Z,19.21
2022-10-05T05:09:08.504Z,19.07
2022-10-05T05:12:03.830Z,18.81
2022-10-05T05:15:04.652Z,18.98
2022-10-05T05:17:50.240Z,19.06
2022-10-05T05:20:24.560Z,19.17
2022-10-05T05:23:00.705Z,19.22
2022-10-05T05:25:45.110Z,19.27
2022-10-05T05:28:37.159Z,19.34
2022-10-05T05:31:13.228Z,19.44
2022-10-05T05:34:12.633Z,19.49
2022-10-05T05:36:51.259Z,19.33
2022-10-05T05:39:34.504Z,19.46
2022-10-05T05:42:11.745Z,19.52
2022-10-05T05:44:47.074Z,19.58
2022-10-05T05:47:23.709Z,19.59
2022-10-05T05:50:07.466Z,19.58
2022-10-05T05:52:41.624Z,19.59
2022-10-05T05:55:31.378Z,19.66
2022-10-05T05:58:11.497Z,19.61
2022-10-05T06:01:16.392Z,19.57
2022-10-05T06:04:01.650Z,19.57
2022-10-05T06:06:32.766Z,19.60
2022-10-05T06:09:40.290Z,19.62
2022-10-05T06:12:44.824Z,19.24
2022-10-05T06:15:30.818Z,19.29
2022-10-05T06:18:01.168Z,19.19
2022-10-05T06:20:45.667Z,19.47
2022-10-05T06:23:25.493Z,19.53
2022-10-05T06:26:14.415Z,19.53
2022-10-05T06:28:43.301Z,19.40
2022-10-05T06:31:35.100Z,19.65
2022-10-05T06:34:14.813Z,19.51
2022-10-05T06:36:46.491Z,19.18
2022-10-05T06:39:32.409Z,18.99
2022-10-05T06:42:42.671Z,18.69
2022-10-05T06:45:42.943Z,18.59
2022-10-05T06:48:31.714Z,18.63
2022-10-05T06:51:40.082Z,18.50
2022-10-05T06:54:47.300Z,18.45
2022-10-05T06:57:24.691Z,18.69
2022-10-05T07:00:05.056Z,18.84
2022-10-05T07:02:53.964Z,18.89
2022-10-05T07:05:33.974Z,19.03
2022-10-05T07:08:07.069Z,19.19
2022-10-05T07:10:52.802Z,19.37
2022-10-05T07:13:38.186Z,19.45
2022-10-05T07:16:25.517Z,19.41
2022-10-05T07:19:10.166Z,19.66
2022-10-05T07:22:00.929Z,19.79
2022-10-05T07:24:42.035Z,19.82
2022-10-05T07:27:20.347Z,19.69
2022-10-05T07:30:16.720Z,19.92
2022-10-05T07:32:47.533Z,19.99
2022-10-05T07:35:34.381Z,20.02
2022-10-05T07:38:36.720Z,20.06
2022-10-05T07:41:03.847Z,20.12
2022-10-05T07:43:57.958Z,20.14
2022-10-05T07:46:24.087Z,20.32
2022-10-05T07:49:05.723Z,20.44
2022-10-05T07:51:36.749Z,20.52
2022-10-05T07:54:06.916Z,20.56
2022-10-05T07:56:40.285Z,20.49
2022-10-05T07:59:11.979Z,20.72
2022-10-05T08:01:45.055Z,20.77
2022-10-05T08:04:19.816Z,20.81
2022-10-05T08:07:13.957Z,20.88
2022-10-05T08:10:08.825Z,20.96
2022-10-05T08:13:04.749Z,21.08
2022-10-05T08:15:43.223Z,21.11
2022-10-05T08:18:45.310Z,21.17
2022-10-05T08:21:13.475Z,21.23
2022-10-05T08:23:48.426Z,21.19
2022-10-05T08:26:40.023Z,21.24
2022-10-05T08:29:28.109Z,21.30
2022-10-05T08:32:03.122Z,21.39
2022-10-05T08:34:40.236Z,21.51
2022-10-05T08:37:10.896Z,21.61
2022-10-05T08:39:49.223Z,21.67
2022-10-05T08:42:22.296Z,21.78
2022-10-05T08:45:09.432Z,21.84
2022-10-05T08:47:39.231Z,21.93
2022-10-05T08:50:31.884Z,22.07
2022-10-05T08:53:17.105Z,22.16
2022-10-05T08:55:56.269Z,22.18
2022-10-05T08:58:52.373Z,22.25
2022-10-05T09:01:20.987Z,22.36
2022-10-05T09:04:15.488Z,22.49
2022-10-05T09:07:10.931Z,22.60
2022-10-05T09:09:45.252Z,22.60
2022-10-05T09:12:40.464Z,22.64
2022-10-05T09:15:24.793Z,22.79
2022-10-05T09:18:26.667Z,22.97
2022-10-05T09:21:24.212Z,22.88
2022-10-05T09:24:02.401Z,22.89
2022-10-05T09:26:52.625Z,23.10
2022-10-05T09:29:19.634Z,23.20
2022-10-05T09:32:25.118Z,23.27
2022-10-05T09:34:55.761Z,23.28
2022-10-05T09:37:49.952Z,23.31
2022-10-05T09:40:41.841Z,23.37
2022-10-05T09:43:26.676Z,23.44
2022-10-05T09:46:24.920Z,23.61
2022-10-05T09:49:11.542Z,23.70
2022-10-05T09:51:58.786Z,23.72
2022-10-05T09:54:31.643Z,23.72
2022-10-05T09:57:31.117Z,23.79
2022-10-05T10:00:09.529Z,23.91
2022-10-05T10:03:13.502Z,24.01
2022-10-05T10:06:10.623Z,24.01
2022-10-05T10:08:52.971Z,24.01
2022-10-05T10:11:33.909Z,24.06
2022-10-05T10:14:39.255Z,24.21
2022-10-05T10:17:38.410Z,24.30
2022-10-05T10:20:20.364Z,24.35
2022-10-05T10:23:02.305Z,24.35
2022-10-05T10:25:32.126Z,24.36
2022-10-05T10:28:23.294Z,24.48
2022-10-05T10:31:15.199Z,24.60
2022-10-05T10:34:00.692Z,24.65
2022-10-05T10:36:54.196Z,24.68
2022-10-05T10:39:41.391Z,24.62
2022-10-05T10:42:26.350Z,24.63
2022-10-05T10:45:22.910Z,24.78
2022-10-05T10:48:29.702Z,24.91
2022-10-05T10:51:19.803Z,24.96
2022-10-05T10:53:57.658Z,24.94
2022-10-05T10:56:51.022Z,24.81
2022-10-05T10:59:37.381Z,24.90
2022-10-05T11:02:28.880Z,25.02
2022-10-05T11:05:17.533Z,25.11
2022-10-05T11:08:13.649Z,25.21
2022-10-05T11:11:02.860Z,25.23
2022-10-05T11:13:52.720Z,25.20
2022-10-05T11:16:28.367Z,25.14
2022-10-05T11:19:40.741Z,25.19
2022-10-05T11:22:35.246Z,25.33
2022-10-05T11:25:17.284Z,25.41
2022-10-05T11:27:53.625Z,25.45
2022-10-05T11:30:21.493Z,25.46
2022-10-05T11:33:11.281Z,25.48
2022-10-05T11:35:52.953Z,25.48
2022-10-05T11:38:51.444Z,25.39
2022-10-05T11:41:31.379Z,25.65
2022-10-05T11:44:06.327Z,25.74
2022-10-05T11:46:46.471Z,25.81
2022-10-05T11:49:22.288Z,25.84
2022-10-05T11:52:02.031Z,25.81
2022-10-05T11:54:46.602Z,25.73
2022-10-05T11:57:49.373Z,25.70
2022-10-05T12:00:21.411Z,25.72
2022-10-05T12:02:54.653Z,25.72
2022-10-05T12:05:33.930Z,25.98
2022-10-05T12:08:12.856Z,26.05
2022-10-05T12:10:59.320Z,26.07
2022-10-05T12:13:38.200Z,25.80
2022-10-05T12:16:22.756Z,26.03
2022-10-05T12:19:14.358Z,26.00
2022-10-05T12:21:48.251Z,26.00
2022-10-05T12:24:46.380Z,25.98
2022-10-05T12:27:20.599Z,25.99
2022-10-05T12:30:03.819Z,25.99
2022-10-05T12:32:30.800Z,26.11
2022-10-05T12:35:03.517Z,26.15
2022-10-05T12:37:44.193Z,26.08
2022-10-05T12:40:20.310Z,26.20
2022-10-05T12:42:59.179Z,26.21
2022-10-05T12:45:47.456Z,26.14
2022-10-05T12:48:38.973Z,26.21
2022-10-05T12:51:09.715Z,26.24
2022-10-05T12:54:13.102Z,26.30
2022-10-05T12:56:46.038Z,26.32
2022-10-05T12:59:36.004Z,26.36
2022-10-05T13:02:07.411Z,26.32
2022-10-05T13:05:11.649Z,26.38
2022-10-05T13:07:44.033Z,26.38
2022-10-05T13:10:39.045Z,26.39
2022-10-05T13:13:10.326Z,26.38
2022-10-05T13:15:44.358Z,26.37
2022-10-05T13:18:30.508Z,26.09
2022-10-05T13:21:02.284Z,26.31
2022-10-05T13:23:39.852Z,26.29
2022-10-05T13:26:13.066Z,26.24
2022-10-05T13:29:01.194Z,26.23
2022-10-05T13:31:55.922Z,26.19
2022-10-05T13:34:26.647Z,26.17
2022-10-05T13:37:02.814Z,26.17
2022-10-05T13:39:39.249Z,26.10
2022-10-05T13:42:26.889Z,26.09
2022-10-05T13:44:55.856Z,26.07
2022-10-05T13:47:50.979Z,26.07
2022-10-05T13:50:19.492Z,26.04
2022-10-05T13:52:58.208Z,26.02
2022-10-05T13:56:06.282Z,25.99
2022-10-05T13:58:39.994Z,25.92
2022-10-05T14:01:16.772Z,25.89
2022-10-05T14:04:04.398Z,25.89
2022-10-05T14:06:31.280Z,25.85
2022-10-05T14:08:58.198Z,25.83
2022-10-05T14:11:34.978Z,25.81
2022-10-05T14:14:14.480Z,25.79
2022-10-05T14:16:58.228Z,25.77
2022-10-05T14:19:32.111Z,25.74
2022-10-05T14:22:01.700Z,25.70
2022-10-05T14:24:44.633Z,25.71
2022-10-05T14:27:32.907Z,25.69
2022-10-05T14:30:08.665Z,25.67
2022-10-05T14:32:55.990Z,25.65
2022-10-05T14:35:28.933Z,25.63
2022-10-05T14:38:01.055Z,25.49
2022-10-05T14:40:33.040Z,25.47
2022-10-05T14:43:20.252Z,25.56
2022-10-05T14:45:53.285Z,25.52
2022-10-05T14:48:20.160Z,25.51
2022-10-05T14:51:09.367Z,25.37
2022-10-05T14:53:43.348Z,25.47
2022-10-05T14:56:17.181Z,25.42
2022-10-05T14:58:47.069Z,25.40
2022-10-05T15:01:19.480Z,25.39
2022-10-05T15:04:01.655Z,25.38
2022-10-05T15:06:30.411Z,25.33
2022-10-05T15:09:19.921Z,25.32
2022-10-05T15:11:56.601Z,25.26
2022-10-05T15:14:35.944Z,25.25
2022-10-05T15:17:16.734Z,25.22
2022-10-05T15:19:59.911Z,25.16
2022-10-05T15:22:42.704Z,25.18
2022-10-05T15:25:16.613Z,25.14
2022-10-05T15:28:17.534Z,25.09
2022-10-05T15:30:54.159Z,25.09
2022-10-05T15:33:23.788Z,25.06
2022-10-05T15:35:56.384Z,25.04
2022-10-05T15:38:25.859Z,25.00
2022-10-05T15:41:01.160Z,24.75
2022-10-05T15:43:58.527Z,24.95
2022-10-05T15:46:46.466Z,24.98
2022-10-05T15:49:52.346Z,24.96
2022-10-05T15:52:24.873Z,24.88
2022-10-05T15:55:23.318Z,24.88
2022-10-05T15:58:07.863Z,24.81
2022-10-05T16:00:44.934Z,24.80
2022-10-05T16:03:23.454Z,24.75
2022-10-05T16:06:18.238Z,24.69
2022-10-05T16:08:55.907Z,24.66
2022-10-05T16:11:48.934Z,24.64
2022-10-05T16:14:29.356Z,24.60
2022-10-05T16:17:02.009Z,24.54
2022-10-05T16:19:38.089Z,24.48
2022-10-05T16:22:43.455Z,24.43
2022-10-05T16:25:28.708Z,24.38
2022-10-05T16:28:34.749Z,24.33
2022-10-05T16:31:26.463Z,24.27
2022-10-05T16:34:23.294Z,24.25
2022-10-05T16:37:02.674Z,24.19
2022-10-05T16:40:00.890Z,24.19
2022-10-05T16:42:34.876Z,24.15
2022-10-05T16:45:23.096Z,24.14
2022-10-05T16:47:55.551Z,24.12
2022-10-05T16:50:59.830Z,24.10
2022-10-05T16:53:41.679Z,24.02
2022-10-05T16:56:17.295Z,23.88
2022-10-05T16:59:11.124Z,23.97
2022-10-05T17:01:50.106Z,23.91
2022-10-05T17:04:43.198Z,23.83
2022-10-05T17:07:53.103Z,23.79
2022-10-05T17:10:37.191Z,23.73
2022-10-05T17:13:45.758Z,23.70
2022-10-05T17:16:40.353Z,23.63
2022-10-05T17:19:37.614Z,23.57
2022-10-05T17:22:31.659Z,23.50
2022-10-05T17:25:22.448Z,23.45
2022-10-05T17:27:55.357Z,23.41
2022-10-05T17:30:29.478Z,23.25
2022-10-05T17:33:04.506Z,23.30
2022-10-05T17:36:06.608Z,23.27
2022-10-05T17:38:38.305Z,23.20
2022-10-05T17:41:37.139Z,23.16
2022-10-05T17:44:06.733Z,23.11
2022-10-05T17:46:41.686Z,23.09
2022-10-05T17:49:39.846Z,23.06
2022-10-05T17:52:45.010Z,22.97
2022-10-05T17:55:34.194Z,22.93
2022-10-05T17:58:24.322Z,22.87
2022-10-05T18:00:57.293Z,22.89
2022-10-05T18:03:40.724Z,22.88
2022-10-05T18:06:25.372Z,22.83
2022-10-05T18:09:32.346Z,22.77
2022-10-05T18:12:12.726Z,22.61
2022-10-05T18:15:02.096Z,22.65
2022-10-05T18:17:41.264Z,22.65
2022-10-05T18:20:39.844Z,22.63
2022-10-05T18:23:29.403Z,22.65
2022-10-05T18:26:16.008Z,22.61
2022-10-05T18:29:36.354Z,22.55
2022-10-05T18:32:08.255Z,22.43
2022-10-05T18:35:02.007Z,22.45
2022-10-05T18:37:45.200Z,22.36
2022-10-05T18:40:12.323Z,22.32
2022-10-05T18:42:46.082Z,22.31
2022-10-05T18:45:26.087Z,22.28
2022-10-05T18:48:24.086Z,22.24
2022-10-05T18:50:59.929Z,22.14
2022-10-05T18:53:33.165Z,22.09
2022-10-05T18:56:25.996Z,22.07
2022-10-05T18:58:56.737Z,22.00
2022-10-05T19:01:28.006Z,22.02
2022-10-05T19:04:09.539Z,21.97
2022-10-05T19:06:39.254Z,21.89
2022-10-05T19:09:34.849Z,21.88
2022-10-05T19:12:18.127Z,21.63
2022-10-05T19:15:06.340Z,21.78
2022-10-05T19:17:48.145Z,21.70
2022-10-05T19:20:23.940Z,21.74
2022-10-05T19:23:18.604Z,21.68
2022-10-05T19:25:48.795Z,21.48
2022-10-05T19:28:21.754Z,21.55
2022-10-05T19:31:09.974Z,21.51
2022-10-05T19:33:59.006Z,21.46
2022-10-05T19:36:40.064Z,21.44
2022-10-05T19:39:06.813Z,21.39
2022-10-05T19:42:24.950Z,21.36
2022-10-05T19:45:09.844Z,21.32
2022-10-05T19:47:42.364Z,21.31
2022-10-05T19:50:29.257Z,21.27
2022-10-05T19:53:08.167Z,21.21
2022-10-05T19:55:39.683Z,21.20
2022-10-05T19:58:20.002Z,20.96
2022-10-05T20:00:59.899Z,21.11
2022-10-05T20:03:31.009Z,21.03
2022-10-05T20:05:59.557Z,21.02
2022-10-05T20:08:27.582Z,20.89
2022-10-05T20:11:27.244Z,21.00
2022-10-05T20:13:54.962Z,20.96
2022-10-05T20:16:50.430Z,20.93
2022-10-05T20:19:50.900Z,20.84
2022-10-05T20:22:37.409Z,20.77
2022-10-05T20:25:06.340Z,20.60
2022-10-05T20:27:43.753Z,20.76
2022-10-05T20:30:14.767Z,20.74
2022-10-05T20:32:42.141Z,20.75
2022-10-05T20:35:09.010Z,20.71
2022-10-05T20:37:36.839Z,20.70
2022-10-05T20:40:05.068Z,20.74
2022-10-05T20:42:32.000Z,20.73
2022-10-05T20:44:58.893Z,20.73
2022-10-05T20:47:25.971Z,20.55
2022-10-05T20:49:55.990Z,20.67
2022-10-05T20:52:23.304Z,20.66
2022-10-05T20:54:53.849Z,20.64
2022-10-05T20:57:21.334Z,20.62
2022-10-05T20:59:48.206Z,20.62
2022-10-05T21:02:15.042Z,20.47
2022-10-05T21:04:46.793Z,20.58
2022-10-05T21:07:17.836Z,20.55
2022-10-05T21:09:46.545Z,20.52
2022-10-05T21:12:13.724Z,20.30
2022-10-05T21:14:40.655Z,20.43
2022-10-05T21:17:07.593Z,20.43
2022-10-05T21:19:38.478Z,20.27
2022-10-05T21:22:09.067Z,20.21
2022-10-05T21:24:36.957Z,20.35
2022-10-05T21:27:04.132Z,20.30
2022-10-05T21:29:31.213Z,20.27
2022-10-05T21:31:58.086Z,20.23
2022-10-05T21:34:25.020Z,20.21
2022-10-05T21:36:51.877Z,20.16
2022-10-05T21:39:19.273Z,20.11
2022-10-05T21:41:46.528Z,20.13
2022-10-05T21:44:13.379Z,20.11
2022-10-05T21:46:40.229Z,20.08
2022-10-05T21:49:07.323Z,20.07
2022-10-05T21:51:34.215Z,20.08
2022-10-05T21:54:03.567Z,19.99
2022-10-05T21:56:32.267Z,19.96
2022-10-05T21:58:59.292Z,19.96
2022-10-05T22:01:26.209Z,19.94
2022-10-05T22:03:53.085Z,19.92
2022-10-05T22:06:19.957Z,19.89
2022-10-05T22:08:46.773Z,19.88
2022-10-05T22:11:15.249Z,19.91
2022-10-05T22:13:47.289Z,19.88
2022-10-05T22:16:14.418Z,19.84
2022-10-05T22:18:41.551Z,19.77
2022-10-05T22:21:09.996Z,19.74
2022-10-05T22:23:36.989Z,19.70
2022-10-05T22:26:03.831Z,19.70
2022-10-05T22:28:31.742Z,19.66
2022-10-05T22:30:59.908Z,19.60
2022-10-05T22:33:27.184Z,19.67
2022-10-05T22:35:55.451Z,19.61
2022-10-05T22:38:22.289Z,19.60
2022-10-05T22:40:49.155Z,19.57
2022-10-05T22:43:16.445Z,19.54
2022-10-05T22:45:43.313Z,19.51
2022-10-05T22:49:06.496Z,19.49
2022-10-05T22:51:33.401Z,19.38
2022-10-05T22:54:00.235Z,19.37
2022-10-05T22:56:28.378Z,19.33
2022-10-05T22:58:55.257Z,19.31
2022-10-05T23:01:22.168Z,19.26
2022-10-05T23:03:49.182Z,19.24
2022-10-05T23:06:17.872Z,19.22
2022-10-05T23:08:45.086Z,19.27
2022-10-05T23:11:13.910Z,19.20
2022-10-05T23:13:40.812Z,19.18
2022-10-05T23:16:13.269Z,19.17
2022-10-05T23:18:40.392Z,19.14
2022-10-05T23:21:08.462Z,19.06
2022-10-05T23:23:47.476Z,18.94
2022-10-05T23:26:15.109Z,19.08
2022-10-05T23:28:49.298Z,19.08
2022-10-05T23:31:21.318Z,19.08
2022-10-05T23:33:48.217Z,19.05
2022-10-05T23:36:16.885Z,19.01
2022-10-05T23:38:44.028Z,18.99
2022-10-05T23:41:10.867Z,19.00
2022-10-05T23:43:37.936Z,18.93
2022-10-05T23:46:05.495Z,18.90
2022-10-05T23:48:32.718Z,18.85
2022-10-05T23:50:59.807Z,18.83
2022-10-05T23:53:26.658Z,18.81
2022-10-05T23:55:53.679Z,18.83
2022-10-05T23:58:20.940Z,18.81
